createdAt,value
2018-12-20T00:02:11.746Z,5.84
2018-12-20T00:04:39.338Z,5.71
2018-12-20T00:07:06.744Z,5.78
2018-12-20T00:09:34.289Z,5.88
2018-12-20T00:12:01.750Z,5.99
2018-12-20T00:14:30.115Z,5.89
2018-12-20T00:17:03.383Z,6.00
2018-12-20T00:19:30.789Z,6.12
2018-12-20T00:21:58.314Z,6.10
2018-12-20T00:24:25.782Z,6.05
2018-12-20T00:26:53.454Z,6.21
2018-12-20T00:29:21.077Z,6.20
2018-12-20T00:31:48.580Z,6.18
2018-12-20T00:34:16.047Z,6.07
2018-12-20T00:36:43.580Z,6.16
2018-12-20T00:39:11.117Z,6.21
2018-12-20T00:41:38.603Z,6.13
2018-12-20T00:44:06.291Z,6.08
2018-12-20T00:46:33.818Z,6.05
2018-12-20T00:49:01.403Z,6.05
2018-12-20T00:51:29.064Z,6.18
2018-12-20T00:53:56.665Z,6.16
2018-12-20T00:56:24.178Z,6.08
2018-12-20T00:58:51.735Z,5.96
2018-12-20T01:01:19.255Z,6.17
2018-12-20T01:03:46.671Z,6.19
2018-12-20T01:06:14.216Z,6.10
2018-12-20T01:08:41.771Z,6.21
2018-12-20T01:11:09.330Z,6.13
2018-12-20T01:13:36.821Z,6.14
2018-12-20T01:16:04.246Z,6.14
2018-12-20T01:18:31.863Z,6.09
2018-12-20T01:20:59.266Z,6.17
2018-12-20T01:23:26.726Z,6.13
2018-12-20T01:25:54.278Z,6.03
2018-12-20T01:28:21.815Z,5.94
2018-12-20T01:30:49.282Z,5.96
2018-12-20T01:33:16.727Z,6.01
2018-12-20T01:35:44.133Z,6.01
2018-12-20T01:38:11.642Z,5.96
2018-12-20T01:40:39.040Z,5.92
2018-12-20T01:43:06.584Z,5.95
2018-12-20T01:45:34.038Z,5.94
2018-12-20T01:48:01.528Z,5.97
2018-12-20T01:50:29.080Z,5.91
2018-12-20T01:52:56.591Z,5.95
2018-12-20T01:55:24.087Z,5.98
2018-12-20T01:57:51.518Z,5.87
2018-12-20T02:00:19.109Z,5.81
2018-12-20T02:02:46.551Z,5.99
2018-12-20T02:05:14.152Z,6.06
2018-12-20T02:07:41.872Z,6.05
2018-12-20T02:10:09.611Z,5.95
2018-12-20T02:12:37.134Z,5.98
2018-12-20T02:15:06.357Z,6.00
2018-12-20T02:17:33.818Z,6.11
2018-12-20T02:20:01.445Z,6.13
2018-12-20T02:22:29.072Z,6.12
2018-12-20T02:24:56.529Z,6.21
2018-12-20T02:27:24.044Z,6.14
2018-12-20T02:29:51.602Z,6.06
2018-12-20T02:32:19.222Z,6.07
2018-12-20T02:34:46.812Z,6.07
2018-12-20T02:37:14.366Z,5.96
2018-12-20T02:39:41.883Z,5.94
2018-12-20T02:42:09.394Z,5.91
2018-12-20T02:44:36.938Z,5.95
2018-12-20T02:47:04.478Z,6.01
2018-12-20T02:49:31.944Z,6.02
2018-12-20T02:51:59.557Z,6.09
2018-12-20T02:54:27.026Z,5.94
2018-12-20T02:56:54.468Z,5.91
2018-12-20T02:59:22.061Z,6.03
2018-12-20T03:01:49.601Z,5.96
2018-12-20T03:04:17.312Z,5.97
2018-12-20T03:06:44.853Z,6.02
2018-12-20T03:09:12.566Z,5.99
2018-12-20T03:11:40.117Z,6.12
2018-12-20T03:14:07.677Z,6.14
2018-12-20T03:16:35.291Z,6.14
2018-12-20T03:19:03.054Z,6.11
2018-12-20T03:21:30.687Z,6.18
2018-12-20T03:23:58.235Z,6.23
2018-12-20T03:26:25.697Z,6.23
2018-12-20T03:28:53.246Z,6.14
2018-12-20T03:31:20.656Z,6.28
2018-12-20T03:33:48.363Z,6.33
2018-12-20T03:36:15.980Z,6.30
2018-12-20T03:38:43.418Z,6.20
2018-12-20T03:41:10.819Z,6.31
2018-12-20T03:43:38.482Z,6.41
2018-12-20T03:46:06.329Z,6.45
2018-12-20T03:48:33.840Z,6.37
2018-12-20T03:51:01.299Z,6.20
2018-12-20T03:53:28.727Z,6.25
2018-12-20T03:55:56.426Z,6.28
2018-12-20T03:58:23.964Z,6.06
2018-12-20T04:00:51.643Z,6.09
2018-12-20T04:03:19.284Z,6.12
2018-12-20T04:05:46.841Z,5.98
2018-12-20T04:08:14.480Z,5.89
2018-12-20T04:10:42.058Z,5.94
2018-12-20T04:13:09.515Z,5.93
2018-12-20T04:15:37.863Z,5.96
2018-12-20T04:18:05.819Z,6.03
2018-12-20T04:20:33.396Z,5.90
2018-12-20T04:23:00.982Z,5.81
2018-12-20T04:25:28.447Z,5.95
2018-12-20T04:27:56.093Z,6.26
2018-12-20T04:30:23.780Z,6.20
2018-12-20T04:32:51.335Z,6.02
2018-12-20T04:35:18.887Z,5.94
2018-12-20T04:37:46.676Z,5.93
2018-12-20T04:40:14.155Z,6.00
2018-12-20T04:42:41.614Z,5.96
2018-12-20T04:45:09.355Z,6.04
2018-12-20T04:47:36.902Z,6.22
2018-12-20T04:50:05.009Z,6.38
2018-12-20T04:52:32.555Z,6.31
2018-12-20T04:55:00.233Z,6.21
2018-12-20T04:57:28.096Z,6.13
2018-12-20T04:59:55.633Z,6.16
2018-12-20T05:02:23.368Z,6.18
2018-12-20T05:04:50.930Z,6.05
2018-12-20T05:07:18.423Z,6.00
2018-12-20T05:09:46.193Z,6.02
2018-12-20T05:12:14.039Z,5.96
2018-12-20T05:14:41.815Z,5.81
2018-12-20T05:17:09.334Z,5.91
2018-12-20T05:19:36.827Z,5.88
2018-12-20T05:22:04.441Z,5.85
2018-12-20T05:24:31.964Z,5.92
2018-12-20T05:26:59.401Z,5.79
2018-12-20T05:29:26.874Z,6.00
2018-12-20T05:31:54.454Z,5.81
2018-12-20T05:34:22.046Z,5.72
2018-12-20T05:36:49.502Z,5.81
2018-12-20T05:39:17.000Z,5.79
2018-12-20T05:41:44.823Z,5.84
2018-12-20T05:44:12.485Z,5.77
2018-12-20T05:46:40.073Z,5.85
2018-12-20T05:49:07.607Z,5.83
2018-12-20T05:51:35.603Z,5.91
2018-12-20T05:54:03.139Z,6.01
2018-12-20T05:56:30.879Z,6.00
2018-12-20T05:58:58.266Z,6.07
2018-12-20T06:01:25.896Z,6.15
2018-12-20T06:03:53.448Z,6.12
2018-12-20T06:06:20.941Z,6.00
2018-12-20T06:08:48.521Z,6.10
2018-12-20T06:11:16.042Z,6.12
2018-12-20T06:13:43.679Z,6.25
2018-12-20T06:16:12.957Z,6.35
2018-12-20T06:18:40.889Z,6.36
2018-12-20T06:21:08.577Z,6.33
2018-12-20T06:23:36.019Z,6.18
2018-12-20T06:26:03.461Z,6.14
2018-12-20T06:28:30.918Z,6.09
2018-12-20T06:30:58.369Z,6.12
2018-12-20T06:33:25.814Z,6.08
2018-12-20T06:35:53.283Z,6.01
2018-12-20T06:38:20.673Z,6.05
2018-12-20T06:40:48.094Z,6.10
2018-12-20T06:43:15.483Z,6.09
2018-12-20T06:45:42.902Z,6.18
2018-12-20T06:48:10.303Z,6.22
2018-12-20T06:50:38.684Z,6.34
2018-12-20T06:53:06.098Z,6.37
2018-12-20T06:55:33.554Z,6.33
2018-12-20T06:58:00.949Z,6.39
2018-12-20T07:00:28.363Z,6.45
2018-12-20T07:02:55.827Z,6.53
2018-12-20T07:05:23.280Z,6.43
2018-12-20T07:07:50.743Z,6.49
2018-12-20T07:10:18.195Z,6.48
2018-12-20T07:12:45.590Z,6.45
2018-12-20T07:15:13.002Z,6.53
2018-12-20T07:17:40.400Z,6.50
2018-12-20T07:20:07.922Z,6.64
2018-12-20T07:22:35.375Z,6.73
2018-12-20T07:25:02.766Z,6.62
2018-12-20T07:27:30.195Z,6.32
2018-12-20T07:29:57.598Z,6.23
2018-12-20T07:32:25.551Z,6.28
2018-12-20T07:34:53.122Z,6.30
2018-12-20T07:37:20.526Z,6.32
2018-12-20T07:39:47.918Z,6.26
2018-12-20T07:42:15.339Z,6.20
2018-12-20T07:44:42.721Z,6.10
2018-12-20T07:47:10.155Z,6.05
2018-12-20T07:49:37.553Z,6.26
2018-12-20T07:52:04.964Z,6.32
2018-12-20T07:54:32.419Z,6.28
2018-12-20T07:56:59.975Z,6.30
2018-12-20T07:59:27.436Z,6.26
2018-12-20T08:01:54.827Z,6.39
2018-12-20T08:04:22.255Z,6.41
2018-12-20T08:06:49.662Z,6.36
2018-12-20T08:09:17.158Z,6.46
2018-12-20T08:11:44.623Z,6.47
2018-12-20T08:14:12.283Z,6.57
2018-12-20T08:16:46.053Z,6.56
2018-12-20T08:19:09.135Z,6.66
2018-12-20T08:21:36.526Z,6.70
2018-12-20T08:24:03.958Z,6.57
2018-12-20T08:26:31.405Z,6.64
2018-12-20T08:28:58.869Z,6.71
2018-12-20T08:31:26.250Z,6.63
2018-12-20T08:33:53.630Z,6.63
2018-12-20T08:36:21.027Z,6.62
2018-12-20T08:38:48.590Z,6.65
2018-12-20T08:41:16.047Z,6.60
2018-12-20T08:43:43.503Z,6.66
2018-12-20T08:46:10.882Z,6.58
2018-12-20T08:48:38.303Z,6.59
2018-12-20T08:51:05.747Z,6.64
2018-12-20T08:53:33.207Z,6.67
2018-12-20T08:56:00.645Z,6.68
2018-12-20T08:58:28.055Z,6.70
2018-12-20T09:00:55.495Z,6.67
2018-12-20T09:03:22.954Z,6.64
2018-12-20T09:05:50.350Z,6.68
2018-12-20T09:08:17.762Z,6.61
2018-12-20T09:10:45.163Z,6.56
2018-12-20T09:13:12.579Z,6.65
2018-12-20T09:15:40.029Z,6.74
2018-12-20T09:18:07.498Z,6.80
2018-12-20T09:20:34.943Z,7.02
2018-12-20T09:23:02.406Z,6.90
2018-12-20T09:25:29.863Z,6.94
2018-12-20T09:27:57.318Z,6.91
2018-12-20T09:30:30.508Z,7.01
2018-12-20T09:32:54.176Z,7.00
2018-12-20T09:35:21.565Z,7.00
2018-12-20T09:37:48.986Z,6.98
2018-12-20T09:40:16.441Z,7.02
2018-12-20T09:42:43.832Z,7.03
2018-12-20T09:45:11.259Z,7.08
2018-12-20T09:47:44.351Z,7.19
2018-12-20T09:50:11.812Z,7.27
2018-12-20T09:52:39.258Z,7.32
2018-12-20T09:55:06.715Z,7.19
2018-12-20T09:57:34.171Z,7.09
2018-12-20T10:00:01.659Z,7.18
2018-12-20T10:02:29.112Z,7.26
2018-12-20T10:04:56.546Z,7.48
2018-12-20T10:07:24.011Z,7.52
2018-12-20T10:09:51.397Z,7.52
2018-12-20T10:12:18.814Z,7.61
2018-12-20T10:14:46.222Z,7.71
2018-12-20T10:17:19.861Z,7.67
2018-12-20T10:19:43.020Z,7.63
2018-12-20T10:22:10.565Z,7.67
2018-12-20T10:24:37.941Z,7.52
2018-12-20T10:27:05.353Z,7.44
2018-12-20T10:29:32.748Z,7.38
2018-12-20T10:32:00.161Z,7.43
2018-12-20T10:34:27.626Z,7.57
2018-12-20T10:36:55.019Z,7.54
2018-12-20T10:39:22.482Z,7.51
2018-12-20T10:41:49.943Z,7.57
2018-12-20T10:44:17.394Z,7.65
2018-12-20T10:46:44.796Z,7.58
2018-12-20T10:49:12.179Z,7.66
2018-12-20T10:51:39.658Z,7.67
2018-12-20T10:54:07.121Z,7.79
2018-12-20T10:56:34.675Z,7.66
2018-12-20T10:59:02.134Z,7.72
2018-12-20T11:01:52.241Z,7.85
2018-12-20T11:04:25.266Z,7.83
2018-12-20T11:06:58.385Z,7.80
2018-12-20T11:15:38.131Z,7.79
2018-12-20T11:18:05.542Z,8.05
2018-12-20T11:20:32.994Z,7.86
2018-12-20T11:23:00.507Z,7.98
2018-12-20T11:25:29.859Z,7.88
2018-12-20T11:28:07.361Z,8.10
2018-12-20T11:30:34.771Z,8.23
2018-12-20T11:33:02.200Z,8.22
2018-12-20T11:38:22.985Z,8.18
2018-12-20T11:40:50.377Z,7.99
2018-12-20T11:43:17.793Z,8.08
2018-12-20T11:45:45.181Z,8.07
2018-12-20T11:48:12.582Z,8.07
2018-12-20T11:50:40.997Z,8.31
2018-12-20T11:53:08.442Z,8.20
2018-12-20T11:55:35.843Z,8.17
2018-12-20T11:58:03.354Z,8.39
2018-12-20T12:00:32.666Z,8.23
2018-12-20T12:03:00.120Z,8.18
2018-12-20T12:05:27.579Z,8.23
2018-12-20T12:07:54.988Z,8.22
2018-12-20T12:10:22.486Z,8.21
2018-12-20T12:12:49.943Z,8.12
2018-12-20T12:15:17.357Z,8.34
2018-12-20T12:17:44.762Z,8.43
2018-12-20T12:20:12.215Z,8.42
2018-12-20T12:22:39.780Z,8.49
2018-12-20T12:25:08.146Z,8.46
2018-12-20T12:27:35.608Z,8.54
2018-12-20T12:30:05.116Z,8.44
2018-12-20T12:32:32.550Z,8.39
2018-12-20T12:35:00.017Z,8.58
2018-12-20T12:37:27.479Z,8.64
2018-12-20T12:39:54.939Z,8.52
2018-12-20T12:42:22.338Z,8.58
2018-12-20T12:44:49.749Z,8.53
2018-12-20T12:47:19.087Z,8.69
2018-12-20T12:49:46.490Z,8.76
2018-12-20T12:52:13.978Z,8.77
2018-12-20T12:54:41.419Z,8.68
2018-12-20T12:57:08.946Z,8.74
2018-12-20T12:59:36.439Z,8.61
2018-12-20T13:02:03.938Z,8.78
2018-12-20T13:04:31.355Z,8.65
2018-12-20T13:06:58.755Z,8.65
2018-12-20T13:09:26.149Z,8.56
2018-12-20T13:11:57.821Z,8.65
2018-12-20T13:14:25.279Z,8.60
2018-12-20T13:16:52.733Z,8.66
2018-12-20T13:19:20.190Z,8.82
2018-12-20T13:21:47.601Z,8.73
2018-12-20T13:24:15.122Z,8.62
2018-12-20T13:26:42.575Z,8.55
2018-12-20T13:29:10.001Z,8.56
2018-12-20T13:31:37.475Z,8.75
2018-12-20T13:34:05.035Z,8.71
2018-12-20T13:36:32.503Z,8.71
2018-12-20T13:38:59.950Z,8.50
2018-12-20T13:41:27.349Z,8.62
2018-12-20T13:43:54.866Z,8.61
2018-12-20T13:46:22.269Z,8.58
2018-12-20T13:48:54.794Z,8.53
2018-12-20T13:51:22.195Z,8.54
2018-12-20T13:53:49.679Z,8.40
2018-12-20T13:56:17.162Z,8.51
2018-12-20T13:58:44.562Z,8.69
2018-12-20T14:01:11.982Z,8.62
2018-12-20T14:03:39.437Z,8.48
2018-12-20T14:06:06.994Z,8.64
2018-12-20T14:08:34.446Z,8.66
2018-12-20T14:11:01.863Z,8.79
2018-12-20T14:13:29.362Z,8.56
2018-12-20T14:15:56.831Z,8.56
2018-12-20T14:18:30.818Z,8.57
2018-12-20T14:20:53.838Z,8.65
2018-12-20T14:23:21.237Z,8.63
2018-12-20T14:25:48.652Z,8.76
2018-12-20T14:28:16.159Z,8.83
2018-12-20T14:30:43.577Z,8.84
2018-12-20T14:33:11.197Z,8.85
2018-12-20T14:35:38.615Z,8.85
2018-12-20T14:38:06.050Z,8.85
2018-12-20T14:40:33.542Z,8.84
2018-12-20T14:43:00.942Z,8.81
2018-12-20T14:45:28.453Z,8.88
2018-12-20T14:48:00.637Z,8.81
2018-12-20T14:50:28.186Z,8.79
2018-12-20T14:52:55.596Z,8.64
2018-12-20T14:55:23.094Z,8.86
2018-12-20T14:57:50.554Z,8.95
2018-12-20T15:00:18.016Z,8.94
2018-12-20T15:02:45.471Z,8.99
2018-12-20T15:05:12.883Z,9.10
2018-12-20T15:07:40.388Z,9.12
2018-12-20T15:10:08.772Z,9.03
2018-12-20T15:12:36.263Z,8.95
2018-12-20T15:15:04.470Z,8.86
2018-12-20T15:17:31.883Z,8.79
2018-12-20T15:19:59.306Z,8.80
2018-12-20T15:22:26.738Z,8.79
2018-12-20T15:24:54.138Z,8.89
2018-12-20T15:27:21.557Z,8.84
2018-12-20T15:29:49.039Z,8.79
2018-12-20T15:32:16.455Z,8.80
2018-12-20T15:34:43.864Z,8.75
2018-12-20T15:37:11.293Z,8.73
2018-12-20T15:39:38.762Z,8.82
2018-12-20T15:42:06.214Z,8.55
2018-12-20T15:44:33.710Z,8.56
2018-12-20T15:47:01.172Z,8.49
2018-12-20T15:49:28.666Z,8.39
2018-12-20T15:51:56.146Z,8.50
2018-12-20T15:54:23.555Z,8.45
2018-12-20T15:56:51.059Z,8.54
2018-12-20T15:59:18.517Z,8.62
2018-12-20T16:01:45.930Z,8.56
2018-12-20T16:04:13.430Z,8.53
2018-12-20T16:06:40.886Z,8.61
2018-12-20T16:09:08.412Z,8.53
2018-12-20T16:11:35.908Z,8.47
2018-12-20T16:14:03.315Z,8.45
2018-12-20T16:16:40.951Z,8.39
2018-12-20T16:19:08.431Z,8.29
2018-12-20T16:21:35.839Z,8.21
2018-12-20T16:24:05.236Z,8.13
2018-12-20T16:26:32.626Z,8.13
2018-12-20T16:29:00.030Z,8.16
2018-12-20T16:31:27.543Z,8.22
2018-12-20T16:33:56.231Z,8.23
2018-12-20T16:36:23.791Z,8.31
2018-12-20T16:38:51.248Z,8.19
2018-12-20T16:41:18.711Z,8.25
2018-12-20T16:43:46.123Z,8.26
2018-12-20T16:46:13.623Z,8.34
2018-12-20T16:48:54.190Z,8.35
2018-12-20T16:51:22.193Z,8.14
2018-12-20T16:53:49.780Z,8.16
2018-12-20T16:56:17.486Z,8.12
2018-12-20T16:58:44.930Z,8.14
2018-12-20T17:01:12.543Z,8.16
2018-12-20T17:03:40.049Z,8.07
2018-12-20T17:06:17.703Z,8.23
2018-12-20T17:08:48.428Z,8.07
2018-12-20T17:11:14.500Z,8.06
2018-12-20T17:13:47.860Z,8.01
2018-12-20T17:16:15.255Z,8.14
2018-12-20T17:18:42.715Z,8.09
2018-12-20T17:21:10.157Z,8.09
2018-12-20T17:23:37.730Z,8.08
2018-12-20T17:26:05.182Z,8.22
2018-12-20T17:28:32.640Z,8.20
2018-12-20T17:31:00.128Z,8.20
2018-12-20T17:33:27.558Z,8.22
2018-12-20T17:35:55.022Z,8.14
2018-12-20T17:38:23.390Z,8.08
2018-12-20T17:40:50.783Z,8.00
2018-12-20T17:43:18.307Z,8.07
2018-12-20T17:45:45.706Z,8.08
2018-12-20T17:48:13.120Z,8.15
2018-12-20T17:50:40.570Z,8.11
2018-12-20T17:53:07.961Z,8.18
2018-12-20T17:55:35.377Z,8.15
2018-12-20T17:58:02.787Z,8.10
2018-12-20T18:00:30.294Z,8.06
2018-12-20T18:02:57.767Z,8.23
2018-12-20T18:05:25.183Z,7.98
2018-12-20T18:07:52.666Z,7.81
2018-12-20T18:10:20.117Z,7.77
2018-12-20T18:12:55.979Z,7.80
2018-12-20T18:15:23.449Z,7.73
2018-12-20T18:17:50.839Z,7.68
2018-12-20T18:20:18.241Z,7.80
2018-12-20T18:22:45.706Z,7.74
2018-12-20T18:25:14.095Z,7.84
2018-12-20T18:27:41.546Z,7.87
2018-12-20T18:30:09.713Z,7.90
2018-12-20T18:32:37.168Z,7.96
2018-12-20T18:35:04.631Z,8.02
2018-12-20T18:37:45.198Z,7.93
2018-12-20T18:40:17.427Z,7.93
2018-12-20T18:42:44.932Z,7.97
2018-12-20T18:45:16.487Z,7.98
2018-12-20T18:47:43.945Z,7.99
2018-12-20T18:50:11.350Z,8.12
2018-12-20T18:55:31.503Z,8.08
2018-12-20T18:57:59.007Z,7.94
2018-12-20T19:00:26.496Z,8.07
2018-12-20T19:02:53.958Z,8.25
2018-12-20T19:05:21.358Z,7.95
2018-12-20T19:07:48.784Z,8.11
2018-12-20T19:10:16.226Z,7.87
2018-12-20T19:12:56.283Z,7.89
2018-12-20T19:15:23.758Z,7.79
2018-12-20T19:17:51.146Z,7.71
2018-12-20T19:20:35.502Z,7.76
2018-12-20T19:26:02.210Z,7.61
2018-12-20T19:28:29.666Z,7.62
2018-12-20T19:30:57.072Z,7.51
2018-12-20T19:33:24.475Z,7.48
2018-12-20T19:36:09.137Z,7.55
2018-12-20T19:38:36.614Z,7.62
2018-12-20T19:41:04.052Z,7.64
2018-12-20T19:43:31.531Z,7.70
2018-12-20T19:45:58.938Z,7.71
2018-12-20T19:48:26.423Z,7.63
2018-12-20T19:50:56.850Z,7.74
2018-12-20T19:53:24.306Z,7.86
2018-12-20T19:55:51.775Z,7.97
2018-12-20T19:58:19.175Z,7.95
2018-12-20T20:00:46.674Z,7.99
2018-12-20T20:03:14.134Z,7.91
2018-12-20T20:05:41.593Z,7.84
2018-12-20T20:08:08.981Z,7.88
2018-12-20T20:10:36.403Z,7.92
2018-12-20T20:13:03.858Z,7.92
2018-12-20T20:15:31.270Z,8.02
2018-12-20T20:17:58.669Z,7.99
2018-12-20T20:20:26.234Z,7.89
2018-12-20T20:22:53.634Z,7.76
2018-12-20T20:25:25.858Z,7.67
2018-12-20T20:27:53.263Z,7.71
2018-12-20T20:30:22.722Z,7.90
2018-12-20T20:32:50.123Z,7.85
2018-12-20T20:35:17.554Z,7.74
2018-12-20T20:37:44.931Z,7.88
2018-12-20T20:40:13.370Z,7.92
2018-12-20T20:42:40.786Z,7.69
2018-12-20T20:45:08.258Z,7.61
2018-12-20T20:47:35.665Z,7.63
2018-12-20T20:50:22.398Z,7.51
2018-12-20T20:52:45.086Z,7.49
2018-12-20T20:55:31.492Z,7.47
2018-12-20T20:57:58.913Z,7.50
2018-12-20T21:00:26.312Z,7.42
2018-12-20T21:02:58.391Z,7.48
2018-12-20T21:05:25.831Z,7.57
2018-12-20T21:07:53.392Z,7.58
2018-12-20T21:10:20.782Z,7.47
2018-12-20T21:12:48.294Z,7.64
2018-12-20T21:15:15.735Z,7.77
2018-12-20T21:17:43.222Z,7.89
2018-12-20T21:20:10.683Z,7.93
2018-12-20T21:22:38.128Z,7.83
2018-12-20T21:25:05.782Z,7.78
2018-12-20T21:27:33.255Z,7.87
2018-12-20T21:30:00.702Z,7.99
2018-12-20T21:32:28.122Z,7.84
2018-12-20T21:34:55.619Z,7.80
2018-12-20T21:37:35.770Z,7.84
2018-12-20T21:40:16.435Z,7.78
2018-12-20T21:42:44.818Z,7.88
2018-12-20T21:45:12.485Z,7.92
2018-12-20T21:47:39.930Z,8.06
2018-12-20T21:50:08.116Z,8.01
2018-12-20T21:52:35.531Z,7.88
2018-12-20T21:55:05.791Z,7.80
2018-12-20T21:57:33.344Z,7.83
2018-12-20T22:00:01.430Z,7.89
2018-12-20T22:02:41.054Z,7.72
2018-12-20T22:05:08.541Z,7.81
2018-12-20T22:07:35.974Z,7.72
2018-12-20T22:10:05.119Z,7.62
2018-12-20T22:12:32.637Z,7.65
2018-12-20T22:17:52.943Z,7.57
2018-12-20T22:20:20.390Z,7.62
2018-12-20T22:22:53.277Z,7.73
2018-12-20T22:25:20.715Z,7.77
2018-12-20T22:27:48.122Z,7.90
2018-12-20T22:30:15.545Z,7.87
2018-12-20T22:32:55.290Z,7.90
2018-12-20T22:35:22.766Z,7.76
2018-12-20T22:37:51.126Z,7.76
2018-12-20T22:40:18.686Z,7.84
2018-12-20T22:42:46.147Z,7.88
2018-12-20T22:45:13.565Z,7.69
2018-12-20T22:47:41.059Z,7.66
2018-12-20T22:50:08.834Z,7.59
2018-12-20T22:52:36.287Z,7.50
2018-12-20T22:55:16.795Z,7.62
2018-12-20T22:57:44.186Z,7.61
2018-12-20T23:00:11.602Z,7.68
2018-12-20T23:02:52.839Z,7.76
2018-12-20T23:05:20.295Z,7.82
2018-12-20T23:07:47.725Z,7.87
2018-12-20T23:10:15.207Z,8.01
2018-12-20T23:12:42.611Z,8.01
2018-12-20T23:15:10.120Z,7.96
2018-12-20T23:17:37.583Z,8.06
2018-12-20T23:20:06.069Z,8.16
2018-12-20T23:22:33.518Z,8.10
2018-12-20T23:25:01.000Z,7.94
2018-12-20T23:27:36.755Z,7.91
2018-12-20T23:30:05.067Z,7.92
2018-12-20T23:32:32.563Z,7.82
2018-12-20T23:34:59.963Z,7.83
2018-12-20T23:37:27.369Z,7.73
2018-12-20T23:39:54.771Z,7.91
2018-12-20T23:42:22.685Z,7.76
2018-12-20T23:44:50.151Z,7.82
2018-12-20T23:47:43.178Z,7.79
2018-12-20T23:50:10.590Z,7.83
2018-12-20T23:52:38.018Z,7.85
2018-12-20T23:55:05.478Z,7.82
2018-12-20T23:57:32.939Z,7.97
